Latest Weather Observations for Swan Island

IDT60801

Issued at 6:05 pm EDT Saturday 1 November 2014 (issued every 30 minutes, with the page automatically refreshed every 10 minutes)

About weather observations | Map of weather stations | Latest weather observations for TAS | Other Formats
Station Details ID: 092123 Name: SWAN ISLAND Lat: -40.73 Lon: 148.12 Height: 15.0 m
Data from the previous 72 hours. | See also: Recent months at Swan Island
Date/Time
EDT
Temp
°C
App
Temp
°C
Dew
Point
Rel
Hum
%
Delta-T
°C
Wind Press
QNH
hPa
Press
MSL
hPa
Rain
since 9 am
mm
Dir
 
Spd
km/h
Gust
km/h
Spd
kts
Gust
kts
01/06:00pm 12.8 - - - - WNW 46 69 25 37 998.4 998.4 0.0
01/05:30pm 13.3 - - - - WNW 46 70 25 38 998.2 998.2 0.0
01/05:00pm 13.9 - - - - W 50 74 27 40 997.7 997.7 0.0
01/04:30pm 14.3 - - - - W 46 69 25 37 997.5 997.5 0.0
01/04:00pm 14.5 - - - - W 46 65 25 35 997.0 997.0 0.0
01/03:30pm 14.5 - - - - WNW 46 70 25 38 996.5 996.5 0.0
01/03:00pm 14.5 - - - - WNW 48 69 26 37 996.3 996.3 0.0
01/02:59pm 14.6 - - - - WNW 48 69 26 37 996.3 996.3 0.0
01/02:30pm 14.6 - - - - WNW 48 65 26 35 996.5 996.5 0.0
01/02:00pm 14.7 - - - - WNW 46 69 25 37 996.5 996.5 0.0
01/01:38pm 15.4 - - - - WNW 41 61 22 33 996.5 996.5 0.0
01/01:30pm 15.3 - - - - WNW 39 54 21 29 996.5 996.5 0.0
01/01:00pm 15.0 - - - - WNW 43 63 23 34 996.4 996.4 0.0
01/12:30pm 14.5 - - - - WNW 44 65 24 35 996.4 996.4 0.0
01/12:12pm 15.1 - - - - WNW 44 65 24 35 996.4 996.4 0.0
01/12:00pm 14.9 - - - - W 43 61 23 33 996.3 996.3 0.0
01/11:30am 15.1 - - - - W 41 63 22 34 996.1 996.1 0.0
01/11:00am 14.0 - - - - WNW 41 61 22 33 996.1 996.1 0.0
01/10:35am 13.4 - - - - WNW 44 63 24 34 996.0 996.0 0.0
01/10:30am 13.4 - - - - WNW 46 63 25 34 995.9 995.9 0.0
01/10:02am 13.2 - - - - WNW 43 61 23 33 995.3 995.3 0.0
01/10:00am 13.2 - - - - WNW 44 61 24 33 995.1 995.1 0.0
01/09:30am 13.1 - - - - WNW 39 57 21 31 994.8 994.8 0.0
01/09:00am 13.1 - - - - NW 43 57 23 31 994.8 994.8 2.6
01/08:31am 13.4 - - - - WNW 35 54 19 29 994.7 994.7 0.4
01/08:30am 13.3 - - - - WNW 37 54 20 29 994.7 994.7 0.4
01/08:29am 13.3 - - - - WNW 35 54 19 29 994.7 994.7 0.4
01/08:00am 13.5 - - - - WNW 43 57 23 31 994.3 994.3 0.0
01/07:30am 14.4 - - - - WNW 37 52 20 28 993.7 993.7 0.0
01/07:00am 14.3 - - - - WNW 33 52 18 28 993.4 993.4 0.0
01/06:30am 14.5 - - - - WNW 26 39 14 21 993.4 993.4 0.0
01/06:00am 14.5 - - - - W 28 39 15 21 992.8 992.8 0.0
01/05:30am 14.7 - - - - W 33 44 18 24 992.7 992.7 0.0
01/05:00am 15.2 - - - - W 39 52 21 28 993.1 993.1 0.0
01/04:30am 15.4 - - - - W 35 44 19 24 992.4 992.4 0.0
01/04:00am 15.3 - - - - NW 24 32 13 17 991.6 991.6 0.0
01/03:30am 15.6 - - - - NW 19 24 10 13 991.5 991.5 0.0
01/03:00am 16.5 - - - - WNW 17 24 9 13 991.9 991.9 0.0
01/02:30am 17.2 - - - - WNW 17 35 9 19 992.1 992.1 0.0
01/02:00am 18.5 - - - - W 19 37 10 20 992.7 992.7 0.0
01/01:52am 20.0 - - - - WNW 24 37 13 20 993.4 993.4 0.0
01/01:30am 17.3 - - - - NNE 32 41 17 22 991.1 991.1 0.0
01/01:00am 17.4 - - - - NNE 35 43 19 23 992.1 992.1 0.0
01/12:30am 17.2 - - - - NNE 32 43 17 23 993.0 993.0 0.0
01/12:00am 17.2 - - - - NNE 35 48 19 26 993.7 993.7 0.0
 
Date/Time
EDT
Temp
°C
App
Temp
°C
Dew
Point
Rel
Hum
%
Delta-T
°C
Wind Press
QNH
hPa
Press
MSL
hPa
Rain
since 9 am
mm
Dir
 
Spd
km/h
Gust
km/h
Spd
kts
Gust
kts
31/11:30pm 17.5 - - - - NNE 39 50 21 27 994.5 994.5 0.0
31/11:00pm 17.1 - - - - NNE 35 46 19 25 995.3 995.3 0.0
31/10:30pm 17.1 - - - - N 44 56 24 30 996.2 996.2 0.0
31/10:00pm 16.8 - - - - N 43 50 23 27 997.1 997.1 0.0
31/09:51pm 16.6 - - - - N 41 50 22 27 997.3 997.3 0.0
31/09:30pm 16.0 - - - - NNE 22 30 12 16 998.2 998.2 0.0
31/09:00pm 14.8 - - - - NNE 17 22 9 12 999.0 999.0 0.0
31/08:30pm 14.9 - - - - NNE 20 28 11 15 999.7 999.7 0.0
31/08:00pm 15.1 - - - - NNE 19 24 10 13 1000.3 1000.3 0.0
31/07:30pm 14.1 - - - - E 9 13 5 7 1001.0 1001.0 0.0
31/07:00pm 14.6 - - - - E 9 11 5 6 1001.3 1001.3 0.0
31/06:30pm 16.2 - - - - ENE 4 6 2 3 1001.4 1001.4 0.0
31/06:00pm 16.5 - - - - N 2 4 1 2 1002.0 1002.0 0.0
31/05:30pm 17.8 - - - - W 7 9 4 5 1002.5 1002.5 0.0
31/05:00pm 15.6 - - - - NW 7 9 4 5 1002.9 1002.9 0.0
31/04:30pm 16.0 - - - - NW 7 11 4 6 1003.3 1003.3 0.0
31/04:00pm 16.2 - - - - NW 9 15 5 8 1003.4 1003.4 0.0
31/03:30pm 17.6 - - - - WNW 11 15 6 8 1004.0 1004.0 0.0
31/03:00pm 17.1 - - - - WNW 11 17 6 9 1004.5 1004.5 0.0
31/02:30pm 16.2 - - - - WNW 15 20 8 11 1005.4 1005.4 0.0
31/02:00pm 16.7 - - - - NW 17 24 9 13 1006.0 1006.0 0.0
31/01:30pm 16.3 - - - - NW 24 30 13 16 1006.3 1006.3 0.0
31/01:00pm 16.2 - - - - NW 30 35 16 19 1006.6 1006.6 0.0
31/12:30pm 15.4 - - - - NNW 30 37 16 20 1006.6 1006.6 0.0
31/12:00pm 15.4 - - - - NW 32 39 17 21 1007.3 1007.3 0.0
31/11:30am 15.8 - - - - NW 30 41 16 22 1007.7 1007.7 0.0
31/11:00am 15.0 - - - - NW 33 43 18 23 1007.8 1007.8 0.0
31/10:30am 15.3 - - - - NNW 37 44 20 24 1007.6 1007.6 0.0
31/10:00am 14.2 - - - - NW 35 44 19 24 1008.0 1008.0 0.0
31/09:30am 14.2 - - - - NW 30 41 16 22 1008.4 1008.4 0.0
31/09:00am 14.5 - - - - NW 32 41 17 22 1008.8 1008.8 0.0
31/08:30am 13.7 - - - - NW 28 35 15 19 1008.9 1008.9 0.0
31/08:00am 13.6 - - - - NW 28 33 15 18 1008.8 1008.8 0.0
31/07:30am 13.2 - - - - NW 24 30 13 16 1008.8 1008.8 0.0
31/07:00am 13.1 - - - - NW 26 35 14 19 1009.1 1009.1 0.0
31/06:30am 13.0 - - - - WNW 24 33 13 18 1008.9 1008.9 0.0
31/06:00am 12.8 - - - - WNW 26 39 14 21 1008.9 1008.9 0.0
31/05:30am 12.6 - - - - W 19 32 10 17 1008.8 1008.8 0.0
31/05:00am 12.9 - - - - WNW 26 33 14 18 1008.7 1008.7 0.0
31/04:30am 12.6 - - - - WNW 28 39 15 21 1008.7 1008.7 0.0
31/04:00am 12.6 - - - - WNW 22 33 12 18 1009.0 1009.0 0.0
31/03:30am 12.7 - - - - WNW 28 37 15 20 1009.4 1009.4 0.0
31/03:00am 12.8 - - - - WNW 26 44 14 24 1009.6 1009.6 0.0
31/02:30am 12.6 - - - - WNW 26 39 14 21 1009.7 1009.7 0.0
31/02:00am 12.7 - - - - W 24 35 13 19 1009.9 1009.9 0.0
31/01:30am 12.9 - - - - WNW 26 39 14 21 1010.2 1010.2 0.0
31/01:00am 12.8 - - - - WNW 20 32 11 17 1010.2 1010.2 0.0
31/12:30am 13.0 - - - - WNW 20 30 11 16 1010.4 1010.4 0.0
31/12:00am 12.9 - - - - W 28 37 15 20 1010.7 1010.7 0.0
 
Date/Time
EDT
Temp
°C
App
Temp
°C
Dew
Point
Rel
Hum
%
Delta-T
°C
Wind Press
QNH
hPa
Press
MSL
hPa
Rain
since 9 am
mm
Dir
 
Spd
km/h
Gust
km/h
Spd
kts
Gust
kts
30/11:30pm 13.1 - - - - W 28 39 15 21 1010.9 1010.8 0.0
30/11:00pm 13.2 - - - - W 30 41 16 22 1010.7 1010.7 0.0
30/10:30pm 13.3 - - - - W 26 37 14 20 1011.0 1010.9 0.0
30/10:00pm 13.3 - - - - W 28 39 15 21 1011.0 1010.9 0.0
30/09:30pm 13.3 - - - - W 32 44 17 24 1010.9 1010.8 0.0
30/09:00pm 13.3 - - - - W 28 41 15 22 1010.4 1010.4 0.0
30/08:30pm 13.5 - - - - WNW 24 35 13 19 1010.4 1010.4 0.0
30/08:00pm 13.6 - - - - WNW 26 39 14 21 1010.3 1010.3 0.0
30/07:30pm 13.6 - - - - WNW 26 41 14 22 1010.0 1010.0 0.0
30/07:00pm 13.9 - - - - W 28 41 15 22 1010.1 1010.1 0.0
30/06:30pm 14.3 - - - - WNW 28 39 15 21 1009.8 1009.8 0.0
30/06:00pm 14.8 - - - - WNW 30 43 16 23 1009.9 1009.9 0.0
30/05:30pm 15.3 - - - - WNW 32 46 17 25 1009.8 1009.8 0.0
30/05:00pm 15.4 - - - - WNW 32 41 17 22 1009.5 1009.5 0.0
30/04:30pm 15.7 - - - - WNW 33 44 18 24 1009.7 1009.7 0.0
30/04:00pm 15.7 - - - - WNW 35 48 19 26 1009.4 1009.4 0.0
30/03:30pm 15.9 - - - - WNW 33 46 18 25 1009.5 1009.5 0.0
30/03:25pm 16.1 - - - - WNW 33 52 18 28 1009.4 1009.4 0.0
30/03:00pm 15.9 - - - - WNW 35 46 19 25 1009.4 1009.4 0.0
30/02:30pm 16.2 - - - - WNW 33 46 18 25 1009.6 1009.6 0.0
30/02:00pm 16.0 - - - - WNW 35 56 19 30 1009.6 1009.6 0.0
30/01:30pm 16.1 - - - - WNW 33 46 18 25 1010.1 1010.1 0.0
30/01:00pm 16.6 - - - - WNW 30 43 16 23 1009.9 1009.9 0.0
30/12:30pm 16.6 - - - - WNW 28 48 15 26 1010.1 1010.1 0.0
30/12:29pm 16.5 - - - - WNW 28 48 15 26 1010.1 1010.1 0.0
30/12:00pm 16.3 - - - - WNW 32 46 17 25 1010.2 1010.2 0.0
30/11:30am 16.4 - - - - WNW 28 39 15 21 1010.6 1010.6 0.0
30/11:00am 15.7 - - - - WNW 30 39 16 21 1010.9 1010.8 0.0
30/10:30am 15.6 - - - - WNW 26 41 14 22 1011.2 1011.1 0.0
30/10:00am 15.3 - - - - WNW 28 39 15 21 1011.0 1010.9 0.0
30/09:30am 15.1 - - - - WNW 30 44 16 24 1010.7 1010.7 0.0
30/09:00am 15.1 - - - - WNW 28 43 15 23 1011.0 1010.9 0.0
30/08:30am 14.3 - - - - WNW 32 43 17 23 1010.6 1010.6 0.0
30/08:00am 13.9 - - - - WNW 33 46 18 25 1010.3 1010.3 0.0
30/07:30am 13.5 - - - - WNW 32 43 17 23 1010.2 1010.2 0.0
30/07:00am 12.9 - - - - WNW 32 43 17 23 1010.1 1010.1 0.0
30/06:30am 12.6 - - - - WNW 30 44 16 24 1009.8 1009.8 0.0
30/06:00am 12.3 - - - - W 28 43 15 23 1009.5 1009.5 0.0
30/05:30am 12.4 - - - - W 39 56 21 30 1009.4 1009.4 0.0
30/05:09am 12.4 - - - - W 32 52 17 28 1009.5 1009.5 0.0
30/05:00am 12.8 - - - - W 30 44 16 24 1009.6 1009.6 0.0
30/04:30am 12.8 - - - - WNW 28 41 15 22 1009.4 1009.4 0.0
30/04:00am 12.8 - - - - WNW 32 44 17 24 1009.4 1009.4 0.0
30/03:52am 12.9 - - - - WNW 30 48 16 26 1009.5 1009.5 0.0
30/03:30am 12.7 - - - - WNW 33 48 18 26 1009.4 1009.4 0.0
30/03:00am 12.9 - - - - WNW 32 52 17 28 1009.2 1009.2 0.0
30/02:52am 12.9 - - - - WNW 32 52 17 28 1009.2 1009.2 0.0
30/02:30am 12.9 - - - - WNW 33 46 18 25 1009.3 1009.3 0.0
30/02:16am 12.9 - - - - WNW 37 56 20 30 1009.3 1009.3 0.0
30/02:00am 12.9 - - - - WNW 35 52 19 28 1009.3 1009.3 0.0
30/01:30am 13.0 - - - - WNW 37 56 20 30 1009.6 1009.6 0.0
30/01:03am 13.1 - - - - W 32 50 17 27 1009.9 1009.9 0.0
30/01:00am 13.1 - - - - W 32 46 17 25 1009.9 1009.9 0.0
30/12:30am 13.3 - - - - WNW 35 56 19 30 1010.1 1010.1 0.0
30/12:01am 13.3 - - - - WNW 39 57 21 31 1010.3 1010.3 0.0
30/12:00am 13.3 - - - - WNW 39 57 21 31 1010.3 1010.3 0.0
 
Date/Time
EDT
Temp
°C
App
Temp
°C
Dew
Point
Rel
Hum
%
Delta-T
°C
Wind Press
QNH
hPa
Press
MSL
hPa
Rain
since 9 am
mm
Dir
 
Spd
km/h
Gust
km/h
Spd
kts
Gust
kts
29/11:55pm 13.3 - - - - WNW 35 56 19 30 1010.3 1010.3 0.0
29/11:30pm 13.3 - - - - WNW 39 56 21 30 1010.5 1010.5 0.0
29/11:04pm 13.3 - - - - WNW 41 61 22 33 1010.4 1010.4 0.0
29/11:00pm 13.3 - - - - WNW 39 56 21 30 1010.6 1010.6 0.0
29/10:30pm 13.3 - - - - WNW 41 61 22 33 1010.4 1010.4 0.0
29/10:00pm 13.3 - - - - WNW 41 59 22 32 1010.5 1010.5 0.0
29/09:33pm 13.3 - - - - WNW 43 63 23 34 1010.5 1010.5 0.0
29/09:30pm 13.4 - - - - WNW 39 57 21 31 1010.6 1010.6 0.0
29/09:01pm 13.3 - - - - WNW 43 63 23 34 1010.5 1010.5 0.0
29/09:00pm 13.3 - - - - WNW 43 59 23 32 1010.6 1010.6 0.0
29/08:30pm 13.3 - - - - WNW 44 65 24 35 1010.3 1010.3 0.0
29/08:27pm 13.2 - - - - WNW 43 65 23 35 1010.2 1010.2 0.0
29/08:00pm 13.3 - - - - WNW 46 59 25 32 1010.0 1010.0 0.0
29/07:34pm 13.4 - - - - WNW 44 65 24 35 1010.0 1010.0 0.0
29/07:30pm 13.5 - - - - WNW 44 63 24 34 1010.0 1010.0 0.0
29/07:12pm 13.5 - - - - WNW 46 70 25 38 1009.8 1009.8 0.0
29/07:00pm 13.7 - - - - WNW 46 61 25 33 1009.7 1009.7 0.0
29/06:36pm 13.8 - - - - WNW 50 69 27 37 1009.3 1009.3 0.0
29/06:30pm 13.8 - - - - WNW 52 67 28 36 1009.4 1009.4 0.0

Other Formats:

Comma delimited format used in spreadsheet applications
http://www.bom.gov.au/fwo/IDT60801/IDT60801.95985.axf

JavaScript Object Notation format (JSON) in row-major order
http://www.bom.gov.au/fwo/IDT60801/IDT60801.95985.json